createdAt,value
2023-05-17T00:00:38.345Z,5.27
2023-05-17T00:03:05.228Z,5.57
2023-05-17T00:05:32.087Z,5.03
2023-05-17T00:07:59.031Z,6.30
2023-05-17T00:10:26.081Z,4.53
2023-05-17T00:12:53.045Z,5.27
2023-05-17T00:15:20.157Z,5.50
2023-05-17T00:17:47.126Z,5.20
2023-05-17T00:20:14.052Z,4.77
2023-05-17T00:22:41.215Z,5.57
2023-05-17T00:25:08.246Z,4.87
2023-05-17T00:27:35.586Z,5.33
2023-05-17T00:30:02.668Z,5.40
2023-05-17T00:32:29.633Z,4.70
2023-05-17T00:34:56.775Z,5.00
2023-05-17T00:37:24.013Z,5.23
2023-05-17T00:39:51.288Z,5.27
2023-05-17T00:42:19.031Z,5.10
2023-05-17T00:44:46.301Z,4.83
2023-05-17T00:47:13.194Z,5.07
2023-05-17T00:49:40.451Z,5.10
2023-05-17T00:52:08.069Z,5.23
2023-05-17T00:54:35.546Z,5.23
2023-05-17T00:57:03.378Z,5.83
2023-05-17T00:59:31.333Z,5.40
2023-05-17T01:01:58.581Z,5.07
2023-05-17T01:04:25.631Z,5.60
2023-05-17T01:06:52.583Z,5.97
2023-05-17T01:09:22.539Z,5.70
2023-05-17T01:12:21.826Z,4.93
2023-05-17T01:15:06.329Z,4.43
2023-05-17T01:17:39.330Z,4.53
2023-05-17T01:20:31.866Z,4.90
2023-05-17T01:23:32.335Z,4.00
2023-05-17T01:26:16.674Z,3.70
2023-05-17T01:28:46.868Z,3.77
2023-05-17T01:31:15.065Z,4.10
2023-05-17T01:33:42.119Z,3.67
2023-05-17T01:36:09.565Z,4.53
2023-05-17T01:38:36.631Z,3.87
2023-05-17T01:41:26.273Z,4.37
2023-05-17T01:44:39.373Z,4.20
2023-05-17T01:47:44.987Z,3.70
2023-05-17T01:50:16.021Z,4.47
2023-05-17T01:52:51.595Z,3.37
2023-05-17T01:55:35.193Z,4.77
2023-05-17T01:58:06.761Z,3.77
2023-05-17T02:00:33.985Z,3.60
2023-05-17T02:03:01.025Z,3.60
2023-05-17T02:05:28.131Z,3.67
2023-05-17T02:07:55.066Z,3.33
2023-05-17T02:10:22.167Z,3.00
2023-05-17T02:12:49.145Z,3.03
2023-05-17T02:15:16.933Z,3.23
2023-05-17T02:17:44.951Z,3.53
2023-05-17T02:20:12.104Z,3.30
2023-05-17T02:22:39.161Z,2.47
2023-05-17T02:25:07.394Z,3.33
2023-05-17T02:27:34.394Z,3.70
2023-05-17T02:30:02.283Z,3.37
2023-05-17T02:32:29.449Z,3.23
2023-05-17T02:34:56.455Z,2.80
2023-05-17T02:37:23.459Z,2.93
2023-05-17T02:39:50.419Z,3.13
2023-05-17T02:42:17.882Z,2.90
2023-05-17T02:44:44.747Z,3.50
2023-05-17T02:47:11.596Z,3.83
2023-05-17T02:49:38.460Z,2.50
2023-05-17T02:52:05.654Z,2.90
2023-05-17T02:54:32.676Z,2.90
2023-05-17T02:56:59.700Z,3.20
2023-05-17T02:59:26.658Z,3.03
2023-05-17T03:01:53.622Z,2.90
2023-05-17T03:04:20.858Z,2.53
2023-05-17T03:06:47.686Z,2.53
2023-05-17T03:09:14.774Z,3.00
2023-05-17T03:11:41.935Z,2.97
2023-05-17T03:14:08.994Z,3.07
2023-05-17T03:16:36.113Z,2.83
2023-05-17T03:19:03.190Z,3.17
2023-05-17T03:21:30.393Z,2.83
2023-05-17T03:23:58.635Z,2.80
2023-05-17T03:26:25.800Z,3.33
2023-05-17T03:28:52.737Z,3.57
2023-05-17T03:31:20.022Z,3.97
2023-05-17T03:33:47.494Z,3.07
2023-05-17T03:36:14.712Z,3.77
2023-05-17T03:38:41.871Z,3.57
2023-05-17T03:41:09.372Z,3.20
2023-05-17T03:43:36.522Z,3.70
2023-05-17T03:46:03.504Z,3.60
2023-05-17T03:48:31.169Z,3.17
2023-05-17T03:50:59.366Z,3.70
2023-05-17T03:53:26.201Z,3.47
2023-05-17T03:55:53.408Z,3.27
2023-05-17T03:58:20.582Z,3.80
2023-05-17T04:00:47.579Z,3.33
2023-05-17T04:03:14.560Z,3.27
2023-05-17T04:05:41.905Z,3.50
2023-05-17T04:08:08.929Z,3.50
2023-05-17T04:10:35.899Z,3.30
2023-05-17T04:13:02.891Z,3.53
2023-05-17T04:15:30.009Z,3.57
2023-05-17T04:17:56.997Z,4.17
2023-05-17T04:20:24.120Z,4.07
2023-05-17T04:22:51.240Z,3.93
2023-05-17T04:25:18.648Z,3.63
2023-05-17T04:27:46.595Z,3.30
2023-05-17T04:30:13.996Z,3.23
2023-05-17T04:32:40.941Z,3.90
2023-05-17T04:35:08.259Z,3.40
2023-05-17T04:37:35.325Z,3.60
2023-05-17T04:40:02.507Z,3.90
2023-05-17T04:42:29.603Z,3.90
2023-05-17T04:44:58.094Z,4.40
2023-05-17T04:47:25.068Z,3.77
2023-05-17T04:49:52.316Z,3.17
2023-05-17T04:52:19.325Z,4.13
2023-05-17T04:54:46.266Z,4.43
2023-05-17T04:57:13.242Z,3.57
2023-05-17T04:59:40.159Z,3.40
2023-05-17T05:02:07.826Z,3.87
2023-05-17T05:04:34.819Z,3.43
2023-05-17T05:07:01.729Z,3.73
2023-05-17T05:09:28.573Z,3.17
2023-05-17T05:11:55.400Z,3.40
2023-05-17T05:14:22.648Z,3.33
2023-05-17T05:16:49.543Z,3.43
2023-05-17T05:19:17.004Z,3.73
2023-05-17T05:21:46.627Z,3.17
2023-05-17T05:24:13.790Z,2.93
2023-05-17T05:26:41.286Z,2.73
2023-05-17T05:29:08.134Z,3.00
2023-05-17T05:31:35.233Z,2.97
2023-05-17T05:34:02.618Z,3.23
2023-05-17T05:36:29.511Z,3.97
2023-05-17T05:38:56.625Z,3.23
2023-05-17T05:41:25.385Z,3.20
2023-05-17T05:43:52.332Z,2.80
2023-05-17T05:46:19.454Z,3.23
2023-05-17T05:48:46.715Z,2.70
2023-05-17T05:51:15.037Z,2.87
2023-05-17T05:53:42.202Z,2.70
2023-05-17T05:56:09.910Z,2.27
2023-05-17T05:58:36.926Z,2.70
2023-05-17T06:01:06.152Z,2.67
2023-05-17T06:03:33.789Z,2.70
2023-05-17T06:06:00.906Z,2.77
2023-05-17T06:08:27.921Z,2.87
2023-05-17T06:10:54.892Z,2.70
2023-05-17T06:13:22.171Z,2.90
2023-05-17T06:15:49.110Z,2.60
2023-05-17T06:18:16.624Z,3.30
2023-05-17T06:20:43.703Z,2.50
2023-05-17T06:23:10.793Z,3.30
2023-05-17T06:25:37.906Z,2.20
2023-05-17T06:28:05.367Z,2.50
2023-05-17T06:30:32.872Z,2.57
2023-05-17T06:33:00.161Z,2.80
2023-05-17T06:35:27.492Z,3.00
2023-05-17T06:37:54.691Z,3.00
2023-05-17T06:40:21.780Z,2.83
2023-05-17T06:42:49.056Z,2.80
2023-05-17T06:45:16.035Z,3.10
2023-05-17T06:47:43.170Z,3.00
2023-05-17T06:50:10.568Z,2.67
2023-05-17T06:52:37.548Z,2.57
2023-05-17T06:55:05.101Z,3.10
2023-05-17T06:57:32.581Z,2.57
2023-05-17T06:59:59.451Z,3.27
2023-05-17T07:02:26.764Z,2.80
2023-05-17T07:04:53.677Z,2.63
2023-05-17T07:07:20.708Z,2.40
2023-05-17T07:09:50.591Z,2.70
2023-05-17T07:12:17.594Z,3.30
2023-05-17T07:14:44.515Z,2.33
2023-05-17T07:17:11.916Z,2.60
2023-05-17T07:19:39.070Z,2.50
2023-05-17T07:22:06.289Z,2.50
2023-05-17T07:24:33.343Z,2.47
2023-05-17T07:27:00.308Z,2.40
2023-05-17T07:29:27.368Z,2.83
2023-05-17T07:31:54.194Z,2.70
2023-05-17T07:34:21.360Z,2.37
2023-05-17T07:36:48.179Z,2.50
2023-05-17T07:39:15.157Z,2.40
2023-05-17T07:41:42.083Z,2.53
2023-05-17T07:44:08.935Z,2.73
2023-05-17T07:46:36.654Z,2.57
2023-05-17T07:49:03.778Z,2.50
2023-05-17T07:51:31.876Z,3.20
2023-05-17T07:53:59.363Z,2.27
2023-05-17T07:56:26.413Z,2.70
2023-05-17T07:58:53.399Z,2.67
2023-05-17T08:01:20.260Z,2.57
2023-05-17T08:03:50.144Z,2.80
2023-05-17T08:06:18.338Z,2.50
2023-05-17T08:08:45.908Z,2.60
2023-05-17T08:11:13.893Z,2.90
2023-05-17T08:13:41.838Z,3.00
2023-05-17T08:16:14.002Z,2.70
2023-05-17T08:18:43.273Z,2.90
2023-05-17T08:21:11.550Z,2.60
2023-05-17T08:23:39.305Z,2.40
2023-05-17T08:26:06.537Z,3.10
2023-05-17T08:28:33.804Z,2.93
2023-05-17T08:31:00.726Z,2.60
2023-05-17T08:33:27.950Z,2.67
2023-05-17T08:35:55.742Z,2.50
2023-05-17T08:38:22.784Z,2.77
2023-05-17T08:40:56.654Z,2.97
2023-05-17T08:43:27.547Z,2.57
2023-05-17T08:45:58.064Z,2.57
2023-05-17T08:48:31.627Z,2.80
2023-05-17T08:51:00.353Z,2.63
2023-05-17T08:53:27.664Z,2.53
2023-05-17T08:56:00.672Z,2.43
2023-05-17T08:58:38.377Z,2.53
2023-05-17T09:01:12.750Z,2.30
2023-05-17T09:03:44.685Z,2.87
2023-05-17T09:06:12.434Z,2.93
2023-05-17T09:08:39.709Z,3.13
2023-05-17T09:11:06.690Z,2.90
2023-05-17T09:13:34.066Z,3.17
2023-05-17T09:16:01.123Z,2.87
2023-05-17T09:18:33.167Z,2.93
2023-05-17T09:21:04.987Z,2.80
2023-05-17T09:23:36.286Z,3.60
2023-05-17T09:26:10.210Z,2.77
2023-05-17T09:28:39.714Z,3.03
2023-05-17T09:31:13.786Z,2.53
2023-05-17T09:33:45.317Z,2.90
2023-05-17T09:36:23.150Z,3.10
2023-05-17T09:39:11.037Z,2.97
2023-05-17T09:41:43.397Z,2.47
2023-05-17T09:44:12.086Z,2.53
2023-05-17T09:46:44.528Z,2.53
2023-05-17T09:49:11.547Z,2.60
2023-05-17T09:51:43.214Z,2.23
2023-05-17T09:54:11.301Z,2.87
2023-05-17T09:56:38.673Z,1.80
2023-05-17T09:59:12.332Z,2.10
2023-05-17T10:01:41.667Z,1.70
2023-05-17T10:04:11.042Z,2.10
2023-05-17T10:09:13.701Z,2.57
2023-05-17T10:11:44.147Z,2.07
2023-05-17T10:14:18.833Z,2.00
2023-05-17T10:16:46.671Z,2.00
2023-05-17T10:19:14.675Z,2.60
2023-05-17T10:21:43.514Z,2.23
2023-05-17T10:24:12.609Z,2.10
2023-05-17T10:26:40.363Z,2.30
2023-05-17T10:29:08.328Z,2.30
2023-05-17T10:31:36.658Z,2.07
2023-05-17T10:34:06.662Z,2.00
2023-05-17T10:36:34.553Z,2.20
2023-05-17T10:39:02.893Z,1.83
2023-05-17T10:41:34.012Z,1.80
2023-05-17T10:44:05.848Z,2.27
2023-05-17T10:46:33.104Z,2.07
2023-05-17T10:49:01.862Z,1.97
2023-05-17T10:51:38.067Z,1.87
2023-05-17T10:54:12.171Z,1.97
2023-05-17T10:56:56.316Z,1.77
2023-05-17T10:59:25.013Z,2.50
2023-05-17T11:01:57.805Z,1.83
2023-05-17T11:04:34.048Z,1.60
2023-05-17T11:07:29.705Z,2.13
2023-05-17T11:10:17.182Z,2.03
2023-05-17T11:12:54.337Z,2.20
2023-05-17T11:15:28.598Z,2.20
2023-05-17T11:17:58.462Z,2.43
2023-05-17T11:20:25.454Z,2.47
2023-05-17T11:22:55.434Z,2.47
2023-05-17T11:25:22.663Z,2.20
2023-05-17T11:27:52.128Z,2.17
2023-05-17T11:30:27.319Z,2.00
2023-05-17T11:33:17.181Z,1.77
2023-05-17T11:35:55.387Z,1.97
2023-05-17T11:38:27.353Z,2.00
2023-05-17T11:40:56.228Z,2.00
2023-05-17T11:43:25.673Z,2.13
2023-05-17T11:45:58.476Z,2.10
2023-05-17T11:48:27.070Z,2.07
2023-05-17T11:50:56.623Z,1.57
2023-05-17T11:53:26.027Z,2.10
2023-05-17T11:55:55.082Z,1.97
2023-05-17T11:58:27.017Z,2.03
2023-05-17T12:00:55.953Z,2.43
2023-05-17T12:03:25.024Z,2.30
2023-05-17T12:06:07.419Z,2.20
2023-05-17T12:08:35.797Z,2.00
2023-05-17T12:11:04.555Z,2.50
2023-05-17T12:13:33.157Z,2.60
2023-05-17T12:16:07.529Z,2.20
2023-05-17T12:18:41.326Z,2.13
2023-05-17T12:21:10.303Z,2.20
2023-05-17T12:23:43.880Z,2.03
2023-05-17T12:26:16.380Z,2.27
2023-05-17T12:28:44.066Z,1.80
2023-05-17T12:31:18.640Z,1.40
2023-05-17T12:33:48.227Z,1.60
2023-05-17T12:36:15.785Z,1.60
2023-05-17T12:38:44.152Z,2.10
2023-05-17T12:41:12.800Z,1.90
2023-05-17T12:43:40.767Z,2.03
2023-05-17T12:46:18.109Z,2.20
2023-05-17T12:48:46.122Z,2.07
2023-05-17T12:51:14.725Z,2.53
2023-05-17T12:54:00.898Z,2.00
2023-05-17T12:56:29.597Z,1.90
2023-05-17T12:59:14.675Z,2.03
2023-05-17T13:01:47.985Z,1.87
2023-05-17T13:04:16.252Z,1.80
2023-05-17T13:06:57.139Z,2.10
2023-05-17T13:09:26.077Z,2.20
2023-05-17T13:12:06.201Z,2.07
2023-05-17T13:14:48.217Z,2.20
2023-05-17T13:17:22.213Z,2.50
2023-05-17T13:19:49.356Z,2.30
2023-05-17T13:22:16.325Z,1.80
2023-05-17T13:24:44.785Z,2.83
2023-05-17T13:27:12.984Z,2.23
2023-05-17T13:29:42.507Z,2.80
2023-05-17T13:32:12.158Z,2.30
2023-05-17T13:34:39.880Z,2.70
2023-05-17T13:37:11.178Z,2.30
2023-05-17T13:39:39.520Z,2.33
2023-05-17T13:42:06.878Z,2.60
2023-05-17T13:44:33.975Z,2.93
2023-05-17T13:47:01.207Z,2.43
2023-05-17T13:49:28.837Z,3.00
2023-05-17T13:51:56.921Z,2.37
2023-05-17T13:54:24.403Z,2.30
2023-05-17T13:56:51.353Z,2.40
2023-05-17T13:59:18.207Z,2.37
2023-05-17T14:01:45.521Z,2.17
2023-05-17T14:04:12.588Z,2.30
2023-05-17T14:06:40.079Z,2.10
2023-05-17T14:09:07.032Z,2.20
2023-05-17T14:11:34.507Z,2.00
2023-05-17T14:14:01.766Z,2.30
2023-05-17T14:16:28.987Z,2.20
2023-05-17T14:18:56.196Z,2.03
2023-05-17T14:21:23.219Z,2.37
2023-05-17T14:23:50.040Z,2.10
2023-05-17T14:26:16.985Z,2.33
2023-05-17T14:28:44.189Z,2.20
2023-05-17T14:31:11.359Z,2.30
2023-05-17T14:33:38.225Z,2.23
2023-05-17T14:36:05.263Z,2.47
2023-05-17T14:38:32.442Z,2.47
2023-05-17T14:41:02.613Z,2.50
2023-05-17T14:43:29.945Z,2.10
2023-05-17T14:45:56.878Z,2.40
2023-05-17T14:48:23.940Z,2.70
2023-05-17T14:50:51.787Z,2.20
2023-05-17T14:53:18.797Z,2.27
2023-05-17T14:55:45.912Z,2.50
2023-05-17T14:58:13.804Z,2.50
2023-05-17T15:00:42.105Z,2.13
2023-05-17T15:03:09.594Z,2.37
2023-05-17T15:05:38.080Z,2.50
2023-05-17T15:08:05.373Z,2.03
2023-05-17T15:10:32.569Z,2.30
2023-05-17T15:12:59.607Z,2.27
2023-05-17T15:15:26.936Z,2.30
2023-05-17T15:17:54.358Z,1.97
2023-05-17T15:20:21.595Z,1.90
2023-05-17T15:22:48.705Z,2.27
2023-05-17T15:25:16.517Z,2.20
2023-05-17T15:27:43.709Z,1.70
2023-05-17T15:30:13.359Z,2.03
2023-05-17T15:32:41.052Z,2.07
2023-05-17T15:35:08.773Z,2.60
2023-05-17T15:37:35.957Z,2.37
2023-05-17T15:40:10.157Z,2.10
2023-05-17T15:42:37.370Z,2.30
2023-05-17T15:45:04.711Z,2.27
2023-05-17T15:47:42.486Z,1.90
2023-05-17T15:50:11.070Z,2.00
2023-05-17T15:52:38.390Z,1.67
2023-05-17T15:55:05.859Z,1.87
2023-05-17T15:57:33.139Z,2.60
2023-05-17T16:00:00.124Z,2.10
2023-05-17T16:02:27.516Z,2.00
2023-05-17T16:04:55.311Z,2.03
2023-05-17T16:07:22.281Z,2.17
2023-05-17T16:09:49.073Z,2.27
2023-05-17T16:12:16.066Z,2.20
2023-05-17T16:14:44.451Z,2.10
2023-05-17T16:17:11.766Z,1.80
2023-05-17T16:19:38.951Z,1.80
2023-05-17T16:22:05.941Z,2.03
2023-05-17T16:24:32.841Z,2.37
2023-05-17T16:27:00.031Z,1.90
2023-05-17T16:29:27.403Z,2.50
2023-05-17T16:31:54.450Z,2.57
2023-05-17T16:34:21.665Z,3.00
2023-05-17T16:36:48.677Z,2.23
2023-05-17T16:39:15.773Z,2.27
2023-05-17T16:41:42.849Z,2.43
2023-05-17T16:44:10.269Z,2.60
2023-05-17T16:46:38.254Z,2.53
2023-05-17T16:49:05.234Z,2.50
2023-05-17T16:51:32.328Z,2.83
2023-05-17T16:53:59.348Z,3.00
2023-05-17T16:56:26.941Z,2.73
2023-05-17T16:58:54.130Z,2.50
2023-05-17T17:01:21.660Z,2.83
2023-05-17T17:03:48.935Z,2.20
2023-05-17T17:06:15.794Z,2.10
2023-05-17T17:08:42.747Z,2.20
2023-05-17T17:11:09.761Z,2.37
2023-05-17T17:13:36.808Z,2.40
2023-05-17T17:16:04.213Z,2.00
2023-05-17T17:18:31.064Z,2.43
2023-05-17T17:20:58.435Z,2.67
2023-05-17T17:23:25.709Z,2.23
2023-05-17T17:25:52.810Z,2.37
2023-05-17T17:28:19.823Z,2.80
2023-05-17T17:30:47.808Z,2.37
2023-05-17T17:33:14.801Z,2.00
2023-05-17T17:35:44.449Z,1.90
2023-05-17T17:38:13.695Z,2.00
2023-05-17T17:40:40.938Z,2.83
2023-05-17T17:43:07.789Z,1.90
2023-05-17T17:45:34.837Z,2.33
2023-05-17T17:48:02.158Z,2.57
2023-05-17T17:50:29.656Z,2.20
2023-05-17T17:52:56.739Z,2.40
2023-05-17T17:55:23.926Z,2.50
2023-05-17T17:57:51.332Z,2.40
2023-05-17T18:00:18.616Z,2.13
2023-05-17T18:02:45.824Z,2.00
2023-05-17T18:05:12.817Z,1.93
2023-05-17T18:07:39.844Z,2.47
2023-05-17T18:10:07.687Z,2.37
2023-05-17T18:12:35.111Z,2.17
2023-05-17T18:15:02.063Z,2.10
2023-05-17T18:17:29.298Z,2.63
2023-05-17T18:19:56.352Z,2.83
2023-05-17T18:22:23.202Z,2.50
2023-05-17T18:24:51.973Z,2.53
2023-05-17T18:27:20.359Z,3.37
2023-05-17T18:29:47.306Z,2.50
2023-05-17T18:32:14.243Z,3.13
2023-05-17T18:34:41.155Z,2.20
2023-05-17T18:37:08.410Z,3.07
2023-05-17T18:39:35.864Z,3.13
2023-05-17T18:42:02.753Z,3.03
2023-05-17T18:44:29.650Z,2.27
2023-05-17T18:46:57.276Z,4.30
2023-05-17T18:49:24.390Z,3.00
2023-05-17T18:51:51.240Z,2.80
2023-05-17T18:54:18.310Z,2.60
2023-05-17T18:56:45.124Z,2.43
2023-05-17T18:59:12.635Z,2.67
2023-05-17T19:01:39.866Z,2.30
2023-05-17T19:04:06.837Z,2.33
2023-05-17T19:06:33.728Z,2.90
2023-05-17T19:09:00.621Z,2.43
2023-05-17T19:11:29.138Z,3.00
2023-05-17T19:13:56.549Z,3.20
2023-05-17T19:16:23.649Z,2.90
2023-05-17T19:18:50.748Z,3.30
2023-05-17T19:21:17.770Z,3.70
2023-05-17T19:23:45.512Z,3.40
2023-05-17T19:26:12.533Z,3.43
2023-05-17T19:28:40.286Z,3.60
2023-05-17T19:31:08.548Z,3.50
2023-05-17T19:33:38.153Z,3.70
2023-05-17T19:36:05.034Z,3.30
2023-05-17T19:38:33.608Z,3.43
2023-05-17T19:41:01.577Z,3.50
2023-05-17T19:43:28.940Z,3.07
2023-05-17T19:45:56.171Z,2.70
2023-05-17T19:48:24.556Z,2.93
2023-05-17T19:50:51.755Z,2.83
2023-05-17T19:53:18.964Z,2.90
2023-05-17T19:55:46.206Z,2.83
2023-05-17T19:58:13.159Z,2.90
2023-05-17T20:00:40.074Z,2.63
2023-05-17T20:03:07.184Z,3.03
2023-05-17T20:05:34.230Z,2.97
2023-05-17T20:08:02.860Z,2.30
2023-05-17T20:10:33.173Z,2.47
2023-05-17T20:13:00.467Z,2.27
2023-05-17T20:15:27.600Z,2.60
2023-05-17T20:17:54.601Z,3.33
2023-05-17T20:20:22.296Z,2.93
2023-05-17T20:22:49.835Z,2.43
2023-05-17T20:25:17.077Z,2.43
2023-05-17T20:27:44.000Z,2.40
2023-05-17T20:30:11.473Z,2.53
2023-05-17T20:32:38.550Z,2.10
2023-05-17T20:35:06.243Z,2.40
2023-05-17T20:37:33.280Z,2.40
2023-05-17T20:40:00.547Z,2.30
2023-05-17T20:42:28.428Z,2.43
2023-05-17T20:44:55.741Z,2.70
2023-05-17T20:47:23.025Z,2.50
2023-05-17T20:49:50.621Z,2.20
2023-05-17T20:52:31.359Z,2.57
2023-05-17T20:55:06.359Z,2.30
2023-05-17T20:57:33.504Z,2.40
2023-05-17T21:00:00.414Z,2.13
2023-05-17T21:02:27.685Z,2.30
2023-05-17T21:04:54.853Z,3.17
2023-05-17T21:07:26.799Z,2.83
2023-05-17T21:09:53.818Z,3.23
2023-05-17T21:12:22.382Z,2.87
2023-05-17T21:15:04.252Z,3.00
2023-05-17T21:17:35.247Z,3.00
2023-05-17T21:20:02.384Z,2.80
2023-05-17T21:22:31.947Z,3.33
2023-05-17T21:24:59.086Z,3.67
2023-05-17T21:27:26.119Z,2.93
2023-05-17T21:29:53.220Z,3.23
2023-05-17T21:32:20.423Z,3.30
2023-05-17T21:34:47.416Z,3.57
2023-05-17T21:37:14.480Z,3.47
2023-05-17T21:39:41.886Z,3.57
2023-05-17T21:42:09.008Z,3.47
2023-05-17T21:44:35.912Z,3.70
2023-05-17T21:47:02.948Z,3.27
2023-05-17T21:49:30.049Z,4.10
2023-05-17T21:51:57.118Z,3.53
2023-05-17T21:54:25.029Z,3.43
2023-05-17T21:56:52.180Z,3.33
2023-05-17T21:59:19.235Z,3.53
2023-05-17T22:01:46.490Z,3.43
2023-05-17T22:04:14.894Z,3.40
2023-05-17T22:06:41.767Z,3.43
2023-05-17T22:09:09.744Z,3.80
2023-05-17T22:11:38.780Z,3.57
2023-05-17T22:14:07.573Z,3.50
2023-05-17T22:16:36.180Z,4.03
2023-05-17T22:19:05.844Z,3.53
2023-05-17T22:21:33.222Z,3.80
2023-05-17T22:24:00.271Z,3.77
2023-05-17T22:26:28.057Z,3.57
2023-05-17T22:28:55.960Z,3.80
2023-05-17T22:31:22.934Z,4.07
2023-05-17T22:33:50.693Z,3.90
2023-05-17T22:36:19.245Z,4.13
2023-05-17T22:38:46.662Z,3.80
2023-05-17T22:41:13.729Z,3.60
2023-05-17T22:43:40.840Z,3.60
2023-05-17T22:46:08.264Z,4.03
2023-05-17T22:48:37.566Z,3.90
2023-05-17T22:51:04.760Z,4.10
2023-05-17T22:53:31.854Z,4.50
2023-05-17T22:55:58.930Z,3.70
2023-05-17T22:58:26.080Z,3.70
2023-05-17T23:00:53.548Z,3.97
2023-05-17T23:03:20.805Z,3.90
2023-05-17T23:05:47.809Z,4.00
2023-05-17T23:08:18.656Z,3.93
2023-05-17T23:10:45.879Z,3.50
2023-05-17T23:13:14.144Z,4.07
2023-05-17T23:15:46.518Z,3.90
2023-05-17T23:18:13.409Z,3.97
2023-05-17T23:20:40.539Z,3.50
2023-05-17T23:23:08.565Z,3.67
2023-05-17T23:25:35.712Z,3.50
2023-05-17T23:28:03.285Z,3.57
2023-05-17T23:30:30.712Z,4.40
2023-05-17T23:32:57.782Z,3.80
2023-05-17T23:35:24.868Z,3.43
2023-05-17T23:37:51.754Z,3.73
2023-05-17T23:40:19.096Z,4.17
2023-05-17T23:42:46.495Z,3.80
2023-05-17T23:45:13.578Z,3.70
2023-05-17T23:47:41.208Z,3.70
2023-05-17T23:50:12.397Z,3.60
2023-05-17T23:52:39.772Z,3.80
2023-05-17T23:55:07.805Z,4.20
2023-05-17T23:57:35.475Z,4.23
